Time;durP1;ratioP1;P1;durP2;ratioP2;P2;SDS_P1;SDS_P2;PMS_P1;PMS_P2;Temp;Humidity;BMP_temperature;BMP_pressure;BME280_temperature;BME280_humidity;BME280_pressure;Samples;Min_cycle;Max_cycle;Signal;HPM_P1;HPM_P2
2022/05/30 00:02:49;;;;;;;4.43;1.80;;;9.70;99.90;;;;;;20826284;28;20068;-77
2022/05/30 00:12:50;;;;;;;2.55;1.65;;;9.70;99.90;;;;;;20828992;28;20480;-77
2022/05/30 00:22:51;;;;;;;5.03;1.37;;;9.70;99.90;;;;;;20827940;28;20048;-78
2022/05/30 00:32:52;;;;;;;4.18;1.50;;;9.60;99.90;;;;;;20828159;28;20034;-77
2022/05/30 00:42:53;;;;;;;4.20;1.57;;;9.50;99.90;;;;;;20811790;28;20036;-77
2022/05/30 00:52:54;;;;;;;2.13;1.40;;;9.50;99.90;;;;;;20836938;28;20036;-77
2022/05/30 01:13:16;;;;;;;4.28;1.48;;;9.50;99.90;;;;;;20825027;28;20487;-77
2022/05/30 01:23:40;;;;;;;3.13;1.45;;;9.50;99.90;;;;;;20827102;28;20469;-77
2022/05/30 01:33:47;;;;;;;2.17;1.38;;;9.30;99.90;;;;;;20827055;28;20049;-78
2022/05/30 01:43:48;;;;;;;9.17;1.60;;;9.20;99.90;;;;;;20827713;28;20033;-78
2022/05/30 01:53:50;;;;;;;5.78;1.88;;;9.10;99.90;;;;;;20833939;28;20142;-77
2022/05/30 02:03:53;;;;;;;2.17;1.88;;;8.50;99.90;;;;;;20842951;28;20115;-78
2022/05/30 02:13:54;;;;;;;4.53;1.60;;;8.00;99.90;;;;;;20849118;28;20402;-78
2022/05/30 02:24:04;;;;;;;4.82;1.95;;;8.10;99.90;;;;;;20840426;28;20068;-78
2022/05/30 02:44:26;;;;;;;4.78;1.83;;;7.50;99.90;;;;;;20741118;28;20033;-79
2022/05/30 02:54:27;;;;;;;3.78;1.63;;;7.20;99.90;;;;;;20742788;28;20034;-79
2022/05/30 03:04:47;;;;;;;4.20;1.75;;;7.40;99.90;;;;;;20741736;28;20033;-78
2022/05/30 03:14:49;;;;;;;6.57;2.10;;;7.10;99.90;;;;;;20757855;28;20113;-79
2022/05/30 03:24:50;;;;;;;4.40;1.80;;;7.20;99.90;;;;;;20739893;28;20099;-79
2022/05/30 03:34:51;;;;;;;5.60;1.50;;;7.30;99.90;;;;;;20732653;28;20116;-79
2022/05/30 03:44:53;;;;;;;2.67;1.50;;;7.10;99.90;;;;;;20740331;28;20628;-77
2022/05/30 03:54:54;;;;;;;;;;;7.20;99.90;;;;;;20755442;28;20033;-77
2022/05/30 04:04:55;;;;;;;2.33;1.45;;;6.80;99.90;;;;;;20745417;28;20430;-76
2022/05/30 04:15:00;;;;;;;2.65;1.52;;;6.40;99.90;;;;;;20725851;28;20403;-75
2022/05/30 04:25:05;;;;;;;1.67;1.50;;;6.80;99.90;;;;;;20744371;28;20116;-76
2022/05/30 04:35:08;;;;;;;2.78;1.58;;;6.80;99.90;;;;;;20743935;28;20036;-77
2022/05/30 04:45:10;;;;;;;2.90;1.60;;;6.90;99.90;;;;;;20726759;28;20030;-77
2022/05/30 04:55:27;;;;;;;2.92;1.67;;;7.00;99.90;;;;;;20751543;28;20029;-76
2022/05/30 05:05:32;;;;;;;3.78;1.65;;;7.50;99.90;;;;;;20737904;28;20022;-77
2022/05/30 05:15:33;;;;;;;3.80;1.60;;;7.90;99.90;;;;;;20733717;28;20029;-77
2022/05/30 05:26:05;;;;;;;6.35;1.58;;;8.30;99.90;;;;;;20750840;28;20455;-77
2022/05/30 05:36:39;;;;;;;2.35;1.52;;;8.60;99.90;;;;;;20754779;28;20037;-79
2022/05/30 05:46:40;;;;;;;6.80;2.30;;;9.30;99.90;;;;;;20752397;28;20408;-78
2022/05/30 05:56:41;;;;;;;;;;;9.60;99.90;;;;;;20752668;28;20034;-77
2022/05/30 06:06:49;;;;;;;3.38;1.90;;;10.00;99.90;;;;;;20768481;28;19955;-79
2022/05/30 06:17:02;;;;;;;5.50;1.50;;;10.30;99.90;;;;;;20767976;28;20034;-79
2022/05/30 06:27:06;;;;;;;5.53;1.40;;;11.00;99.90;;;;;;20765928;28;20050;-79
2022/05/30 06:37:45;;;;;;;5.47;5.07;;;11.50;99.90;;;;;;20610562;28;20060;-79
2022/05/30 06:47:47;;;;;;;932.35;205.57;;;12.20;99.90;;;;;;20763413;28;20041;-78
2022/05/30 06:58:14;;;;;;;5.72;5.20;;;12.60;99.90;;;;;;20727962;28;20049;-79
2022/05/30 07:08:17;;;;;;;18.17;16.83;;;12.90;99.90;;;;;;20763225;28;20037;-79
2022/05/30 07:18:30;;;;;;;3.33;1.15;;;13.60;99.90;;;;;;20746216;28;20059;-77
2022/05/30 07:28:32;;;;;;;7.93;1.20;;;14.10;99.90;;;;;;20762672;28;20540;-79
2022/05/30 07:39:11;;;;;;;4.03;1.45;;;14.60;99.90;;;;;;20608881;28;20527;-79
2022/05/30 07:49:37;;;;;;;2.03;1.20;;;15.30;99.90;;;;;;20761453;28;20030;-78
2022/05/30 08:00:01;;;;;;;2.05;1.05;;;15.70;99.90;;;;;;20761231;28;20044;-79
2022/05/30 08:10:07;;;;;;;3.33;0.90;;;15.90;99.90;;;;;;20728158;28;20026;-79
2022/05/30 08:20:13;;;;;;;3.15;1.17;;;16.20;99.90;;;;;;20758848;28;20034;-78
2022/05/30 08:30:18;;;;;;;3.53;1.35;;;16.40;99.90;;;;;;20771725;22;20072;-78
2022/05/30 08:51:15;;;;;;;3.28;1.17;;;17.20;99.90;;;;;;20737795;28;20054;-77
2022/05/30 09:01:29;;;;;;;3.78;0.90;;;17.70;99.90;;;;;;20740178;28;20056;-78
2022/05/30 09:12:19;;;;;;;4.05;0.70;;;18.70;99.90;;;;;;20737229;28;20041;-78
2022/05/30 09:22:42;;;;;;;4.10;1.08;;;18.60;99.90;;;;;;20734413;28;20037;-77
2022/05/30 09:32:51;;;;;;;4.53;0.80;;;19.20;99.90;;;;;;20733572;28;20485;-78
2022/05/30 09:43:30;;;;;;;1.92;0.88;;;20.40;99.90;;;;;;20735146;28;20052;-77
2022/05/30 09:53:37;;;;;;;1.42;0.60;;;19.00;99.90;;;;;;20719831;28;20038;-78
2022/05/30 10:03:41;;;;;;;0.93;0.63;;;20.20;99.90;;;;;;20717272;28;20034;-78
2022/05/30 10:14:34;;;;;;;2.22;1.05;;;20.50;99.90;;;;;;20718979;28;20033;-77
2022/05/30 10:35:41;;;;;;;4.68;0.93;;;20.40;99.90;;;;;;20745023;28;20026;-78
2022/05/30 10:46:00;;;;;;;1.53;0.83;;;21.90;97.40;;;;;;20737019;28;20026;-78
2022/05/30 10:56:30;;;;;;;3.60;0.73;;;21.70;97.70;;;;;;20743722;28;20493;-78
2022/05/30 11:06:35;;;;;;;1.90;0.80;;;22.10;96.10;;;;;;20726768;28;20034;-78
2022/05/30 11:17:05;;;;;;;1.67;0.68;;;22.80;96.60;;;;;;20752171;28;20026;-78
2022/05/30 11:27:35;;;;;;;2.65;0.70;;;23.10;95.40;;;;;;20748343;28;20050;-78
2022/05/30 11:38:30;;;;;;;1.33;0.47;;;22.10;98.50;;;;;;20749280;28;20037;-79
2022/05/30 11:48:43;;;;;;;2.60;0.90;;;22.60;95.70;;;;;;20744613;28;20038;-78
2022/05/30 11:59:07;;;;;;;2.92;0.80;;;22.70;94.60;;;;;;20730292;28;20033;-78
2022/05/30 12:09:42;;;;;;;1.60;0.70;;;23.70;95.40;;;;;;20761802;28;20153;-78
2022/05/30 12:30:47;;;;;;;1.55;0.75;;;23.00;96.70;;;;;;20754232;28;20072;-78
2022/05/30 12:41:15;;;;;;;4.15;0.80;;;22.80;94.50;;;;;;20732659;28;20117;-78
2022/05/30 12:51:26;;;;;;;2.28;0.82;;;23.40;93.40;;;;;;20738450;28;20037;-77
2022/05/30 13:01:27;;;;;;;1.88;0.80;;;23.30;94.80;;;;;;20751168;28;20042;-77
2022/05/30 13:23:34;;;;;;;9.40;1.23;;;22.30;95.40;;;;;;20567682;28;20039;-78
2022/05/30 13:33:39;;;;;;;2.50;0.80;;;21.60;96.10;;;;;;20598043;28;20046;-77
2022/05/30 13:43:40;;;;;;;2.50;0.82;;;22.30;94.70;;;;;;20583371;28;20039;-78
2022/05/30 13:53:45;;;;;;;5.97;0.90;;;23.10;92.80;;;;;;20690937;28;20049;-78
2022/05/30 14:03:50;;;;;;;4.75;1.33;;;22.50;94.70;;;;;;20768112;28;20157;-78
2022/05/30 14:13:54;;;;;;;2.10;1.15;;;22.40;94.40;;;;;;20774117;28;20036;-78
2022/05/30 14:23:58;;;;;;;1.95;0.70;;;21.50;96.20;;;;;;20784323;28;20112;-77
2022/05/30 14:34:12;;;;;;;4.20;0.93;;;22.50;92.50;;;;;;20894595;23;20071;-77
2022/05/30 14:44:19;;;;;;;2.03;0.70;;;22.30;92.60;;;;;;20990771;28;20337;-77
2022/05/30 14:54:51;;;;;;;3.58;0.93;;;21.80;92.60;;;;;;20957234;28;20040;-77
2022/05/30 15:04:52;;;;;;;1.43;0.73;;;22.20;93.50;;;;;;20907737;28;20105;-76
2022/05/30 15:14:53;;;;;;;5.17;0.83;;;21.90;92.10;;;;;;20958201;28;20040;-78
2022/05/30 15:25:00;;;;;;;2.57;0.87;;;22.50;92.60;;;;;;20955124;28;20025;-77
2022/05/30 15:35:01;;;;;;;3.33;0.85;;;22.00;93.00;;;;;;20913794;28;20442;-78
2022/05/30 15:45:03;;;;;;;4.30;0.70;;;21.70;92.80;;;;;;20942531;28;20125;-80
2022/05/30 16:05:28;;;;;;;5.68;0.90;;;20.80;93.40;;;;;;20932326;28;20037;-76
2022/05/30 16:15:29;;;;;;;1.13;0.77;;;21.00;93.70;;;;;;21017020;28;20038;-76
2022/05/30 16:25:30;;;;;;;2.17;0.90;;;20.90;94.70;;;;;;20902030;28;20033;-76
2022/05/30 16:35:31;;;;;;;2.93;0.80;;;21.10;95.40;;;;;;20890836;28;20135;-76
2022/05/30 16:45:33;;;;;;;2.20;0.70;;;21.30;92.90;;;;;;20894200;28;20039;-76
2022/05/30 16:55:34;;;;;;;1.70;0.85;;;20.60;93.70;;;;;;20889183;28;20037;-76
2022/05/30 17:05:37;;;;;;;2.73;1.00;;;20.60;92.50;;;;;;20887856;28;20037;-76
2022/05/30 17:15:38;;;;;;;3.42;0.77;;;20.90;95.70;;;;;;20966959;28;20047;-76
2022/05/30 17:25:43;;;;;;;9.93;1.13;;;20.50;94.80;;;;;;21052556;28;20490;-76
2022/05/30 17:35:46;;;;;;;3.97;0.90;;;20.80;92.90;;;;;;21070713;28;20028;-76
2022/05/30 17:46:15;;;;;;;3.00;0.77;;;20.60;94.10;;;;;;21068419;28;20131;-76
2022/05/30 17:56:18;;;;;;;3.17;0.70;;;20.80;93.00;;;;;;20900639;28;20051;-76
2022/05/30 18:06:34;;;;;;;3.88;0.85;;;22.10;93.30;;;;;;20909886;28;20484;-76
2022/05/30 18:16:47;;;;;;;1.00;0.70;;;21.50;97.00;;;;;;20986405;28;20029;-76
2022/05/30 18:26:48;;;;;;;2.95;0.82;;;20.70;99.90;;;;;;20901536;28;20047;-76
2022/05/30 18:37:02;;;;;;;1.77;0.77;;;19.00;99.90;;;;;;20900375;28;20041;-75
2022/05/30 18:47:13;;;;;;;1.95;0.88;;;17.80;99.90;;;;;;20921034;28;20115;-77
2022/05/30 18:57:23;;;;;;;4.88;1.05;;;16.20;99.90;;;;;;20939594;28;20525;-78
2022/05/30 19:07:24;;;;;;;2.40;1.02;;;16.20;99.90;;;;;;20956296;28;20087;-77
2022/05/30 19:17:34;;;;;;;2.63;1.23;;;15.30;99.90;;;;;;20952665;28;20028;-77
2022/05/30 19:27:36;;;;;;;2.05;1.30;;;14.80;99.90;;;;;;20953140;28;20043;-77
2022/05/30 19:37:38;;;;;;;;;;;13.90;99.90;;;;;;20954209;28;20039;-77
2022/05/30 19:47:39;;;;;;;2.13;0.75;;;14.00;99.90;;;;;;20953543;28;19943;-77
2022/05/30 19:57:42;;;;;;;6.13;1.13;;;14.60;99.90;;;;;;20961194;28;20031;-77
2022/05/30 20:07:43;;;;;;;1.90;1.02;;;14.20;99.90;;;;;;20951290;28;20032;-77
2022/05/30 20:17:45;;;;;;;2.03;1.30;;;14.00;99.90;;;;;;20945429;28;20040;-77
2022/05/30 20:27:47;;;;;;;2.13;1.20;;;13.80;99.90;;;;;;20948294;22;20137;-74
2022/05/30 20:37:48;;;;;;;5.45;2.13;;;13.70;99.90;;;;;;20813362;28;20131;-74
2022/05/30 20:47:52;;;;;;;5.33;1.50;;;13.70;99.90;;;;;;20827811;28;20026;-74
2022/05/30 20:57:53;;;;;;;9.32;1.30;;;13.50;99.90;;;;;;20826495;28;20059;-74
2022/05/30 21:07:53;;;;;;;2.07;1.13;;;13.40;99.90;;;;;;20824155;28;20041;-74
2022/05/30 21:18:12;;;;;;;2.47;1.17;;;13.40;99.90;;;;;;20824771;28;20045;-73
2022/05/30 21:28:13;;;;;;;2.28;1.15;;;13.20;99.90;;;;;;20793903;28;20159;-73
2022/05/30 21:38:14;;;;;;;2.33;1.47;;;12.80;99.90;;;;;;20740652;28;20053;-74
2022/05/30 21:48:15;;;;;;;4.10;1.27;;;12.70;99.90;;;;;;20740853;28;20030;-74
2022/05/30 21:58:16;;;;;;;2.83;1.33;;;12.50;99.90;;;;;;20740155;28;20026;-74
2022/05/30 22:08:21;;;;;;;2.57;1.13;;;12.60;99.90;;;;;;20739650;28;20048;-73
2022/05/30 22:18:25;;;;;;;4.53;1.10;;;12.40;99.90;;;;;;20750393;28;20033;-74
2022/05/30 22:28:26;;;;;;;2.35;1.10;;;12.30;99.90;;;;;;20755255;28;20037;-74
2022/05/30 22:38:27;;;;;;;3.70;1.10;;;12.40;99.90;;;;;;20756705;28;20061;-76
2022/05/30 22:48:30;;;;;;;3.90;1.25;;;12.30;99.90;;;;;;20754595;28;20037;-74
2022/05/30 22:58:31;;;;;;;1.90;1.25;;;12.30;99.90;;;;;;20753141;28;20180;-73
2022/05/30 23:08:32;;;;;;;3.03;1.20;;;12.00;99.90;;;;;;20751382;28;20061;-73
2022/05/30 23:18:36;;;;;;;3.27;1.13;;;12.10;99.90;;;;;;20751757;28;20346;-74
2022/05/30 23:28:38;;;;;;;2.67;1.40;;;12.00;99.90;;;;;;20748593;28;20042;-74
2022/05/30 23:38:39;;;;;;;;;;;11.90;99.90;;;;;;20750573;28;20507;-74
2022/05/30 23:48:40;;;;;;;1.90;1.13;;;11.80;99.90;;;;;;20749263;28;19909;-74
2022/05/30 23:58:40;;;;;;;4.23;1.53;;;11.90;99.90;;;;;;20748401;28;20511;-74
